createdAt,value
2019-03-01T00:01:16.384Z,100001.81
2019-03-01T00:03:44.698Z,100000.39
2019-03-01T00:06:22.102Z,100001.97
2019-03-01T00:09:13.338Z,100002.33
2019-03-01T00:12:00.603Z,99996.28
2019-03-01T00:15:22.140Z,99999.06
2019-03-01T00:18:16.251Z,100002.45
2019-03-01T00:21:10.920Z,99997.84
2019-03-01T00:24:23.314Z,99988.38
2019-03-01T00:27:22.630Z,99983.09
2019-03-01T00:30:35.628Z,99971.06
2019-03-01T00:33:55.440Z,99979.98
2019-03-01T00:37:19.270Z,99979.28
2019-03-01T00:39:59.630Z,99972.56
2019-03-01T00:43:05.200Z,99967.94
2019-03-01T00:45:33.336Z,99971.73
2019-03-01T00:48:01.453Z,99962.20
2019-03-01T00:50:29.807Z,99967.66
2019-03-01T00:52:57.984Z,99959.72
2019-03-01T00:55:26.153Z,99950.34
2019-03-01T00:57:54.280Z,99946.84
2019-03-01T01:00:27.933Z,99947.00
2019-03-01T01:02:56.145Z,99950.93
2019-03-01T01:05:24.286Z,99933.54
2019-03-01T01:07:52.454Z,99933.19
2019-03-01T01:10:20.669Z,99933.50
2019-03-01T01:12:48.863Z,99931.38
2019-03-01T01:15:16.983Z,99925.34
2019-03-01T01:17:45.144Z,99923.38
2019-03-01T01:20:13.352Z,99920.86
2019-03-01T01:22:41.817Z,99918.12
2019-03-01T01:25:10.116Z,99912.63
2019-03-01T01:27:41.009Z,99915.55
2019-03-01T01:30:10.723Z,99906.72
2019-03-01T01:32:38.814Z,99908.17
2019-03-01T01:35:06.988Z,99908.85
2019-03-01T01:37:35.159Z,99903.47
2019-03-01T01:40:03.375Z,99903.47
2019-03-01T01:42:31.547Z,99902.53
2019-03-01T01:44:59.745Z,99894.29
2019-03-01T01:47:28.010Z,99897.84
2019-03-01T01:49:56.187Z,99890.01
2019-03-01T01:52:24.320Z,99891.27
2019-03-01T01:54:52.522Z,99897.23
2019-03-01T01:57:20.667Z,99899.47
2019-03-01T01:59:48.775Z,99898.77
2019-03-01T02:02:16.941Z,99901.15
2019-03-01T02:04:45.156Z,99684.25
2019-03-01T02:07:13.583Z,99896.47
2019-03-01T02:09:41.778Z,99888.98
2019-03-01T02:12:10.239Z,99896.28
2019-03-01T02:14:39.105Z,99886.42
2019-03-01T02:17:07.379Z,99886.16
2019-03-01T02:19:35.594Z,99883.77
2019-03-01T02:22:03.719Z,99888.39
2019-03-01T02:24:31.892Z,99879.49
2019-03-01T02:27:24.072Z,99877.26
2019-03-01T02:29:52.258Z,99871.57
2019-03-01T02:32:28.866Z,99870.83
2019-03-01T02:34:57.064Z,99871.37
2019-03-01T02:37:25.273Z,99861.98
2019-03-01T02:39:53.463Z,99862.54
2019-03-01T02:42:21.706Z,99862.23
2019-03-01T02:44:49.890Z,99859.33
2019-03-01T02:47:18.053Z,99856.55
2019-03-01T02:49:46.246Z,99854.53
2019-03-01T02:52:14.600Z,99857.24
2019-03-01T02:54:43.073Z,99850.30
2019-03-01T02:57:11.508Z,99849.44
2019-03-01T02:59:39.671Z,99847.67
2019-03-01T03:02:07.908Z,99849.50
2019-03-01T03:04:36.255Z,99849.70
2019-03-01T03:07:23.415Z,99852.89
2019-03-01T03:09:51.651Z,99850.45
2019-03-01T03:15:09.127Z,99852.00
2019-03-01T03:17:37.245Z,99851.72
2019-03-01T03:20:05.867Z,99843.59
2019-03-01T03:22:34.037Z,99848.96
2019-03-01T03:25:02.234Z,99842.97
2019-03-01T03:27:30.410Z,99841.40
2019-03-01T03:29:58.531Z,99837.87
2019-03-01T03:32:26.986Z,99843.27
2019-03-01T03:34:55.116Z,99839.22
2019-03-01T03:37:23.211Z,99846.55
2019-03-01T03:39:51.354Z,99843.10
2019-03-01T03:42:19.534Z,99844.00
2019-03-01T03:44:47.734Z,99838.72
2019-03-01T03:47:15.879Z,99838.64
2019-03-01T03:49:44.223Z,99840.04
2019-03-01T03:52:13.022Z,99836.88
2019-03-01T03:54:41.418Z,99830.55
2019-03-01T03:57:09.574Z,99831.80
2019-03-01T03:59:37.720Z,99832.77
2019-03-01T04:02:06.281Z,99834.16
2019-03-01T04:04:34.482Z,99825.22
2019-03-01T04:07:02.622Z,99823.45
2019-03-01T04:09:31.257Z,99822.34
2019-03-01T04:11:59.384Z,99826.20
2019-03-01T04:14:27.509Z,99824.95
2019-03-01T04:16:55.780Z,99817.17
2019-03-01T04:19:24.010Z,99817.98
2019-03-01T04:21:52.351Z,99819.02
2019-03-01T04:24:20.501Z,99817.00
2019-03-01T04:26:49.001Z,99815.14
2019-03-01T04:29:17.447Z,99813.00
2019-03-01T04:31:46.009Z,99806.09
2019-03-01T04:34:14.437Z,99808.13
2019-03-01T04:36:42.601Z,99804.75
2019-03-01T04:39:10.740Z,99807.53
2019-03-01T04:41:38.996Z,99802.73
2019-03-01T04:44:07.797Z,99798.89
2019-03-01T04:46:35.925Z,99804.58
2019-03-01T04:49:04.062Z,99800.34
2019-03-01T04:51:55.716Z,99807.44
2019-03-01T04:54:24.012Z,99803.13
2019-03-01T04:56:52.234Z,99808.11
2019-03-01T04:59:20.663Z,99801.93
2019-03-01T05:01:48.766Z,99805.80
2019-03-01T05:04:16.973Z,99807.99
2019-03-01T05:06:45.127Z,99813.33
2019-03-01T05:09:13.588Z,99812.95
2019-03-01T05:11:41.845Z,99816.34
2019-03-01T05:14:10.062Z,99814.01
2019-03-01T05:16:38.261Z,99813.22
2019-03-01T05:19:06.449Z,99814.66
2019-03-01T05:21:34.577Z,99811.34
2019-03-01T05:24:02.890Z,99805.84
2019-03-01T05:26:34.996Z,99810.83
2019-03-01T05:29:03.194Z,99809.22
2019-03-01T05:31:31.685Z,99808.34
2019-03-01T05:34:00.063Z,99815.23
2019-03-01T05:36:28.294Z,99813.55
2019-03-01T05:38:56.477Z,99815.00
2019-03-01T05:41:24.789Z,99817.08
2019-03-01T05:43:52.961Z,99817.50
2019-03-01T05:46:21.560Z,99824.09
2019-03-01T05:48:49.705Z,99823.91
2019-03-01T05:51:17.865Z,99826.41
2019-03-01T05:53:46.170Z,99823.70
2019-03-01T05:56:14.375Z,99829.12
2019-03-01T05:59:07.277Z,99817.69
2019-03-01T06:01:43.960Z,99822.75
2019-03-01T06:04:41.280Z,99819.34
2019-03-01T06:07:59.279Z,99824.28
2019-03-01T06:10:51.624Z,99822.25
2019-03-01T06:14:06.150Z,99826.02
2019-03-01T06:17:14.484Z,99817.95
2019-03-01T06:20:11.811Z,99818.61
2019-03-01T06:23:12.031Z,99817.59
2019-03-01T06:26:18.300Z,99817.00
2019-03-01T06:29:45.527Z,99817.12
2019-03-01T06:32:54.317Z,99825.39
2019-03-01T06:35:49.616Z,99818.73
2019-03-01T06:39:18.125Z,99818.06
2019-03-01T06:42:15.697Z,99817.13
2019-03-01T06:45:16.166Z,99818.81
2019-03-01T06:47:47.551Z,99824.61
2019-03-01T06:50:20.491Z,99829.36
2019-03-01T06:52:48.845Z,99830.77
2019-03-01T06:55:35.787Z,99827.36
2019-03-01T06:58:03.948Z,99835.41
2019-03-01T07:03:45.462Z,99832.73
2019-03-01T07:06:13.663Z,99841.05
2019-03-01T07:08:41.983Z,99833.95
2019-03-01T07:11:10.160Z,99832.53
2019-03-01T07:13:38.526Z,99840.06
2019-03-01T07:16:06.962Z,99835.47
2019-03-01T07:18:35.270Z,99832.79
2019-03-01T07:21:03.556Z,99836.09
2019-03-01T07:23:36.780Z,99838.21
2019-03-01T07:26:01.690Z,99842.52
2019-03-01T07:28:30.013Z,99840.80
2019-03-01T07:30:58.282Z,99842.23
2019-03-01T07:33:26.953Z,99843.58
2019-03-01T07:35:55.099Z,99842.94
2019-03-01T07:38:23.243Z,99852.19
2019-03-01T07:40:51.483Z,99854.36
2019-03-01T07:43:19.595Z,99852.72
2019-03-01T07:45:47.837Z,99861.34
2019-03-01T07:48:16.452Z,99870.56
2019-03-01T07:50:44.805Z,99869.74
2019-03-01T07:53:13.265Z,99867.31
2019-03-01T07:55:41.481Z,99865.67
2019-03-01T07:58:09.859Z,99875.08
2019-03-01T08:00:38.207Z,99877.92
2019-03-01T08:03:06.355Z,99878.05
2019-03-01T08:05:35.608Z,99879.03
2019-03-01T08:08:04.868Z,99882.30
2019-03-01T08:10:33.026Z,99879.80
2019-03-01T08:13:21.701Z,99886.94
2019-03-01T08:15:50.032Z,99884.27
2019-03-01T08:18:18.246Z,99886.23
2019-03-01T08:20:46.492Z,99892.13
2019-03-01T08:23:14.802Z,99895.26
2019-03-01T08:25:42.944Z,99898.66
2019-03-01T08:28:11.264Z,99898.37
2019-03-01T08:30:42.454Z,99900.64
2019-03-01T08:33:09.532Z,99899.23
2019-03-01T08:35:37.871Z,99903.78
2019-03-01T08:38:06.051Z,99906.11
2019-03-01T08:40:34.304Z,99909.28
2019-03-01T08:43:02.455Z,99910.84
2019-03-01T08:45:32.953Z,99908.87
2019-03-01T08:48:00.608Z,99910.67
2019-03-01T08:50:29.031Z,99913.47
2019-03-01T08:52:57.377Z,99911.75
2019-03-01T08:55:25.741Z,99912.72
2019-03-01T08:57:54.202Z,99921.32
2019-03-01T09:00:26.984Z,99912.50
2019-03-01T09:02:57.135Z,99911.52
2019-03-01T09:05:25.497Z,99915.05
2019-03-01T09:07:53.751Z,99922.77
2019-03-01T09:10:22.128Z,99919.41
2019-03-01T09:12:50.998Z,99932.77
2019-03-01T09:15:19.515Z,99925.44
2019-03-01T09:17:47.798Z,99927.69
2019-03-01T09:20:16.390Z,99926.00
2019-03-01T09:22:44.840Z,99922.72
2019-03-01T09:25:13.335Z,99925.09
2019-03-01T09:27:41.784Z,99926.42
2019-03-01T09:30:16.400Z,99928.62
2019-03-01T09:32:44.710Z,99927.64
2019-03-01T09:35:32.207Z,99930.48
2019-03-01T09:38:01.045Z,99924.89
2019-03-01T09:40:29.698Z,99932.05
2019-03-01T09:42:57.993Z,99931.91
2019-03-01T09:45:35.570Z,99933.55
2019-03-01T09:47:56.150Z,99927.91
2019-03-01T09:50:24.439Z,99935.77
2019-03-01T09:52:55.476Z,99935.67
2019-03-01T09:55:22.634Z,99935.33
2019-03-01T09:57:50.855Z,99935.33
2019-03-01T10:00:21.721Z,99944.03
2019-03-01T10:02:49.882Z,99938.45
2019-03-01T10:05:18.693Z,99946.07
2019-03-01T10:07:47.001Z,99949.14
2019-03-01T10:10:18.923Z,99954.58
2019-03-01T10:12:47.369Z,99960.30
2019-03-01T10:15:15.625Z,99960.23
2019-03-01T10:17:44.105Z,99960.48
2019-03-01T10:20:13.615Z,99952.38
2019-03-01T10:22:41.892Z,99960.09
2019-03-01T10:25:11.954Z,99958.98
2019-03-01T10:27:40.476Z,99959.58
2019-03-01T10:30:15.090Z,99966.38
2019-03-01T10:32:43.379Z,99963.98
2019-03-01T10:35:12.496Z,99967.98
2019-03-01T10:37:40.648Z,99975.28
2019-03-01T10:40:10.644Z,99992.77
2019-03-01T10:42:38.855Z,99986.78
2019-03-01T10:45:09.068Z,99993.87
2019-03-01T10:47:37.360Z,100006.83
2019-03-01T10:50:06.328Z,100005.16
2019-03-01T10:52:34.453Z,100004.97
2019-03-01T10:55:02.592Z,100007.55
2019-03-01T10:57:30.774Z,100012.30
2019-03-01T10:59:59.211Z,100009.22
2019-03-01T11:02:27.397Z,100019.50
2019-03-01T11:04:55.752Z,100025.14
2019-03-01T11:07:24.027Z,100030.27
2019-03-01T11:09:52.231Z,100029.98
2019-03-01T11:12:20.638Z,100040.62
2019-03-01T11:14:49.151Z,100043.64
2019-03-01T11:17:17.486Z,100045.97
2019-03-01T11:19:45.892Z,100045.49
2019-03-01T11:22:14.223Z,100059.80
2019-03-01T11:24:42.368Z,100064.52
2019-03-01T11:27:13.036Z,100062.73
2019-03-01T11:29:40.540Z,100068.24
2019-03-01T11:32:08.784Z,100064.72
2019-03-01T11:34:37.034Z,100060.30
2019-03-01T11:37:05.254Z,99720.12
2019-03-01T11:39:33.536Z,100063.54
2019-03-01T11:42:02.004Z,100062.24
2019-03-01T11:44:30.248Z,100065.77
2019-03-01T11:46:58.472Z,100070.00
2019-03-01T11:49:26.631Z,100070.09
2019-03-01T11:51:54.847Z,100076.84
2019-03-01T11:54:23.465Z,100078.81
2019-03-01T11:56:53.716Z,100078.91
2019-03-01T11:59:22.345Z,100081.84
2019-03-01T12:01:50.625Z,100085.51
2019-03-01T12:04:19.087Z,100089.05
2019-03-01T12:06:47.955Z,100088.65
2019-03-01T12:09:16.334Z,100095.14
2019-03-01T12:11:44.631Z,100094.49
2019-03-01T12:14:12.767Z,100095.77
2019-03-01T12:16:41.113Z,100099.55
2019-03-01T12:19:09.482Z,100102.03
2019-03-01T12:21:38.022Z,100097.13
2019-03-01T12:24:06.302Z,100101.85
2019-03-01T12:26:34.668Z,100105.72
2019-03-01T12:29:02.983Z,100102.22
2019-03-01T12:31:31.410Z,100111.19
2019-03-01T12:33:59.805Z,100103.09
2019-03-01T12:36:28.091Z,100116.83
2019-03-01T12:38:56.350Z,100114.96
2019-03-01T12:41:24.818Z,100118.66
2019-03-01T12:43:53.213Z,100120.91
2019-03-01T12:46:21.508Z,100128.94
2019-03-01T12:48:49.706Z,100137.11
2019-03-01T12:51:17.917Z,100142.91
2019-03-01T12:53:46.158Z,100155.98
2019-03-01T12:56:14.371Z,100153.95
2019-03-01T12:58:42.567Z,100157.97
2019-03-01T13:01:10.740Z,100163.52
2019-03-01T13:03:40.663Z,100167.64
2019-03-01T13:06:08.958Z,100167.30
2019-03-01T13:08:37.307Z,100169.74
2019-03-01T13:11:05.708Z,100188.58
2019-03-01T13:13:34.656Z,100184.38
2019-03-01T13:16:04.037Z,100188.21
2019-03-01T13:18:32.251Z,100180.97
2019-03-01T13:21:00.501Z,100186.33
2019-03-01T13:23:28.948Z,100189.48
2019-03-01T13:25:57.971Z,100188.11
2019-03-01T13:28:26.503Z,100188.98
2019-03-01T13:30:54.731Z,100184.95
2019-03-01T13:33:23.123Z,100181.55
2019-03-01T13:35:51.688Z,100190.11
2019-03-01T13:38:20.093Z,100187.05
2019-03-01T13:40:48.727Z,100187.13
2019-03-01T13:43:23.791Z,100186.80
2019-03-01T13:45:53.459Z,100188.31
2019-03-01T13:48:22.762Z,100186.57
2019-03-01T13:50:51.648Z,100191.73
2019-03-01T13:53:19.989Z,100194.92
2019-03-01T13:55:48.432Z,100212.63
2019-03-01T13:58:16.902Z,100211.48
2019-03-01T14:00:45.656Z,100218.89
2019-03-01T14:03:15.487Z,100221.16
2019-03-01T14:05:43.875Z,100219.31
2019-03-01T14:08:12.288Z,100226.17
2019-03-01T14:10:41.814Z,100213.89
2019-03-01T14:13:14.431Z,100224.59
2019-03-01T14:15:40.766Z,100213.61
2019-03-01T14:18:09.247Z,100224.13
2019-03-01T14:20:37.781Z,100229.98
2019-03-01T14:23:06.325Z,100225.55
2019-03-01T14:25:34.812Z,100229.23
2019-03-01T14:28:05.150Z,100226.68
2019-03-01T14:30:33.754Z,100228.33
2019-03-01T14:33:02.093Z,100221.77
2019-03-01T14:35:30.483Z,100221.13
2019-03-01T14:37:58.855Z,100232.63
2019-03-01T14:40:27.720Z,100231.61
2019-03-01T14:42:56.293Z,100238.39
2019-03-01T14:45:25.944Z,100239.52
2019-03-01T14:47:55.726Z,100238.59
2019-03-01T14:50:25.016Z,100230.87
2019-03-01T14:52:58.470Z,100245.78
2019-03-01T14:55:27.438Z,100237.13
2019-03-01T14:58:03.080Z,100238.94
2019-03-01T15:00:39.281Z,100241.39
2019-03-01T15:03:31.120Z,100243.47
2019-03-01T15:05:59.454Z,100243.67
2019-03-01T15:08:27.945Z,100256.89
2019-03-01T15:10:56.619Z,100264.33
2019-03-01T15:13:25.097Z,100261.78
2019-03-01T15:15:53.549Z,100261.63
2019-03-01T15:18:21.999Z,100256.31
2019-03-01T15:20:50.355Z,100262.83
2019-03-01T15:23:20.780Z,100263.05
2019-03-01T15:25:49.153Z,100270.39
2019-03-01T15:28:17.902Z,100262.69
2019-03-01T15:30:47.285Z,100274.44
2019-03-01T15:33:16.171Z,100271.31
2019-03-01T15:35:45.336Z,100276.75
2019-03-01T15:38:13.659Z,100286.92
2019-03-01T15:40:42.087Z,100285.80
2019-03-01T15:43:10.567Z,100288.97
2019-03-01T15:45:39.880Z,100287.26
2019-03-01T15:48:09.093Z,100292.89
2019-03-01T15:50:37.624Z,100300.02
2019-03-01T15:53:05.987Z,100300.09
2019-03-01T15:55:34.330Z,100304.25
2019-03-01T15:58:02.708Z,100303.52
2019-03-01T16:00:31.216Z,100309.81
2019-03-01T16:03:00.502Z,100307.21
2019-03-01T16:05:29.158Z,100300.27
2019-03-01T16:07:58.028Z,100305.25
2019-03-01T16:10:26.736Z,100309.43
2019-03-01T16:12:54.935Z,100312.17
2019-03-01T16:15:23.228Z,100315.73
2019-03-01T16:17:51.616Z,100307.66
2019-03-01T16:20:20.141Z,100309.59
2019-03-01T16:22:56.076Z,100304.59
2019-03-01T16:25:24.584Z,100315.63
2019-03-01T16:27:54.212Z,100332.34
2019-03-01T16:30:23.352Z,100337.49
2019-03-01T16:32:51.609Z,100337.03
2019-03-01T16:35:19.989Z,100348.35
2019-03-01T16:40:25.016Z,100357.59
2019-03-01T16:42:54.665Z,100370.50
2019-03-01T16:45:23.619Z,100364.45
2019-03-01T16:47:51.976Z,100366.23
2019-03-01T16:50:20.397Z,100369.74
2019-03-01T16:52:49.020Z,100369.42
2019-03-01T16:55:18.001Z,100368.48
2019-03-01T16:57:48.672Z,100370.55
2019-03-01T17:00:18.120Z,100375.69
2019-03-01T17:02:47.997Z,100391.08
2019-03-01T17:05:16.649Z,100396.34
2019-03-01T17:07:44.983Z,100395.44
2019-03-01T17:10:15.600Z,100400.92
2019-03-01T17:12:43.190Z,100399.59
2019-03-01T17:15:14.897Z,100399.05
2019-03-01T17:17:43.975Z,100401.52
2019-03-01T17:20:12.398Z,100407.86
2019-03-01T17:22:40.883Z,100411.80
2019-03-01T17:25:09.368Z,100411.98
2019-03-01T17:27:40.036Z,100415.83
2019-03-01T17:30:11.118Z,100420.47
2019-03-01T17:32:39.914Z,100420.86
2019-03-01T17:35:08.936Z,100426.58
2019-03-01T17:37:37.998Z,100427.53
2019-03-01T17:40:06.883Z,100429.83
2019-03-01T17:42:35.141Z,100435.31
2019-03-01T17:45:04.499Z,100441.90
2019-03-01T17:47:33.129Z,100444.15
2019-03-01T17:50:01.670Z,100444.22
2019-03-01T17:52:33.710Z,100449.30
2019-03-01T17:55:02.768Z,100458.09
2019-03-01T17:57:32.946Z,100466.66
2019-03-01T18:00:02.593Z,100462.94
2019-03-01T18:02:30.831Z,100463.74
2019-03-01T18:04:59.079Z,100465.04
2019-03-01T18:07:28.272Z,100463.63
2019-03-01T18:09:56.951Z,100461.25
2019-03-01T18:12:25.756Z,100450.58
2019-03-01T18:14:54.343Z,100454.28
2019-03-01T18:17:23.165Z,100459.54
2019-03-01T18:19:51.560Z,100457.22
2019-03-01T18:22:22.909Z,100469.80
2019-03-01T18:24:49.895Z,100474.98
2019-03-01T18:27:19.331Z,100481.98
2019-03-01T18:29:47.904Z,100480.02
2019-03-01T18:32:17.241Z,100481.21
2019-03-01T18:34:45.804Z,100484.39
2019-03-01T18:37:19.415Z,100484.80
2019-03-01T18:39:45.460Z,100479.18
2019-03-01T18:42:38.069Z,100476.44
2019-03-01T18:45:07.070Z,100479.00
2019-03-01T18:47:37.972Z,100482.33
2019-03-01T18:50:09.966Z,100332.13
2019-03-01T18:52:39.786Z,100473.28
2019-03-01T18:55:10.108Z,100478.39
2019-03-01T18:57:39.693Z,100475.86
2019-03-01T19:00:32.455Z,100477.97
2019-03-01T19:03:05.499Z,100483.28
2019-03-01T19:05:36.678Z,100482.88
2019-03-01T19:08:06.499Z,100489.72
2019-03-01T19:10:35.877Z,100489.78
2019-03-01T19:13:08.275Z,100493.59
2019-03-01T19:15:38.399Z,100498.78
2019-03-01T19:18:08.127Z,100501.69
2019-03-01T19:20:38.024Z,100504.34
2019-03-01T19:23:08.485Z,100509.05
2019-03-01T19:25:38.281Z,100505.29
2019-03-01T19:28:08.152Z,100502.23
2019-03-01T19:30:37.897Z,100500.31
2019-03-01T19:33:07.901Z,100501.35
2019-03-01T19:35:38.637Z,100506.62
2019-03-01T19:38:08.916Z,100508.17
2019-03-01T19:40:39.193Z,100507.23
2019-03-01T19:43:10.299Z,100509.16
2019-03-01T19:45:41.770Z,100506.73
2019-03-01T19:48:11.933Z,100507.76
2019-03-01T19:50:43.575Z,100510.27
2019-03-01T19:53:13.741Z,100511.17
2019-03-01T19:55:44.033Z,100508.17
2019-03-01T19:58:16.862Z,100508.98
2019-03-01T20:00:46.567Z,100512.16
2019-03-01T20:03:16.313Z,100512.53
2019-03-01T20:05:52.647Z,100514.04
2019-03-01T20:08:22.431Z,100518.52
2019-03-01T20:10:52.578Z,100515.19
2019-03-01T20:13:22.405Z,100522.45
2019-03-01T20:15:52.872Z,100521.54
2019-03-01T20:18:21.570Z,100522.50
2019-03-01T20:20:51.590Z,100527.01
2019-03-01T20:26:11.627Z,100521.25
2019-03-01T20:28:43.648Z,100523.83
2019-03-01T20:31:14.912Z,100517.42
2019-03-01T20:33:45.146Z,100514.00
2019-03-01T20:36:17.640Z,100516.40
2019-03-01T20:38:47.178Z,100515.41
2019-03-01T20:41:17.145Z,100521.02
2019-03-01T20:43:47.344Z,100527.61
2019-03-01T20:46:17.529Z,100531.69
2019-03-01T20:48:47.557Z,100533.82
2019-03-01T20:51:17.451Z,100534.63
2019-03-01T20:53:49.501Z,100536.86
2019-03-01T20:56:20.031Z,100536.78
2019-03-01T20:58:49.981Z,100544.11
2019-03-01T21:01:22.538Z,100539.33
2019-03-01T21:03:52.536Z,100536.44
2019-03-01T21:06:22.146Z,100539.36
2019-03-01T21:08:52.516Z,100538.91
2019-03-01T21:11:25.317Z,100540.45
2019-03-01T21:13:55.292Z,100533.50
2019-03-01T21:16:25.068Z,100536.83
2019-03-01T21:18:53.853Z,100538.60
2019-03-01T21:21:25.593Z,100532.01
2019-03-01T21:23:54.161Z,100540.42
2019-03-01T21:26:24.073Z,100540.80
2019-03-01T21:28:53.512Z,100547.95
2019-03-01T21:31:23.187Z,100557.27
2019-03-01T21:33:52.734Z,100549.06
2019-03-01T21:36:22.913Z,100550.16
2019-03-01T21:38:51.254Z,100544.01
2019-03-01T21:41:19.871Z,100550.25
2019-03-01T21:43:48.729Z,100547.62
2019-03-01T21:46:18.207Z,100541.36
2019-03-01T21:48:47.481Z,100538.73
2019-03-01T21:51:18.522Z,100543.69
2019-03-01T21:53:47.123Z,100538.91
2019-03-01T21:56:34.725Z,100544.92
2019-03-01T21:59:04.290Z,100548.03
2019-03-01T22:01:33.083Z,100545.58
2019-03-01T22:04:02.529Z,100537.63
2019-03-01T22:06:31.656Z,100542.69
2019-03-01T22:09:00.972Z,100544.17
2019-03-01T22:11:29.364Z,100540.77
2019-03-01T22:13:59.188Z,100539.63
2019-03-01T22:16:27.458Z,100544.17
2019-03-01T22:18:58.735Z,100546.03
2019-03-01T22:21:26.616Z,100541.84
2019-03-01T22:23:55.481Z,100544.84
2019-03-01T22:26:24.113Z,100539.73
2019-03-01T22:28:52.889Z,100548.16
2019-03-01T22:31:21.926Z,100551.06
2019-03-01T22:33:52.653Z,100544.84
2019-03-01T22:36:21.115Z,100542.61
2019-03-01T22:38:49.381Z,100548.65
2019-03-01T22:41:18.028Z,100546.69
2019-03-01T22:43:46.361Z,100547.11
2019-03-01T22:46:15.124Z,100554.73
2019-03-01T22:48:47.142Z,100546.81
2019-03-01T22:51:14.431Z,100552.15
2019-03-01T22:53:44.203Z,100553.86
2019-03-01T22:56:13.143Z,100550.70
2019-03-01T22:58:41.368Z,100548.56
2019-03-01T23:01:16.744Z,100557.48
2019-03-01T23:03:51.572Z,100556.58
2019-03-01T23:06:20.561Z,100558.30
2019-03-01T23:08:48.763Z,100559.11
2019-03-01T23:11:17.071Z,100567.60
2019-03-01T23:13:45.418Z,100564.77
2019-03-01T23:16:15.967Z,100561.88
2019-03-01T23:18:44.156Z,100559.59
2019-03-01T23:21:12.504Z,100556.91
2019-03-01T23:23:40.952Z,100560.55
2019-03-01T23:26:09.481Z,100567.23
2019-03-01T23:28:40.765Z,100566.36
2019-03-01T23:31:08.124Z,100563.02
2019-03-01T23:33:36.361Z,100554.65
2019-03-01T23:36:05.112Z,100560.49
2019-03-01T23:38:33.411Z,100563.92
2019-03-01T23:41:01.741Z,100565.25
2019-03-01T23:43:30.876Z,100560.55
2019-03-01T23:46:00.054Z,100560.10
2019-03-01T23:48:28.573Z,100560.61
2019-03-01T23:50:56.917Z,100567.61
2019-03-01T23:53:25.185Z,100562.19
2019-03-01T23:55:54.693Z,100565.40
2019-03-01T23:58:23.632Z,100556.03
